Friday, November 28, 2014, 6:51 PM EST
Back to Local

KMPO, Mt Pocono Pocono Mountains

Location: Pocono Summit, PA, United States Lat: 41.133
Local Time: 6:51 PM EST (23:51 GMT) Lon: -75.383
Time Zone: US/Eastern Elev: 1915 ft

Show me the last for .
Show Decoded

2014-11-28 17:53 METAR KMPO 282253Z AUTO 31006KT 10SM CLR M07/M13 A3011 RMK AO2 SLP227 T10721128
                 =
2014-11-28 16:53 METAR KMPO 282153Z AUTO 32008KT 10SM CLR M06/M13 A3011 RMK AO2 SLP227 T10611128
                 =
2014-11-28 15:53 METAR KMPO 282053Z AUTO 30010KT 10SM CLR M05/M13 A3010 RMK AO2 SLP222 T10501128
                 53005 =
2014-11-28 13:53 METAR KMPO 281853Z AUTO 30013G21KT 10SM CLR M04/M13 A3009 RMK AO2 SLP217
                 T10441133 =
2014-11-28 12:53 METAR KMPO 281753Z AUTO 33012G19KT 10SM SCT027 BKN033 M04/M12 A3009 RMK AO2 PK
                 WND 30027/1729 SLP216 60000 T10391117 11039 21050 56009 =
2014-11-28 12:51 METAR KMPO 281751Z AUTO 32013G19KT 10SM SCT027 BKN033 M04/M12 A3009 RMK AO2 PK
                 WND 30027/1729 =
2014-11-28 11:53 METAR KMPO 281653Z AUTO 30015G22KT 10SM OVC028 M04/M12 A3010 RMK AO2 PK WND
                 31026/1642 SNE1559 SLP221 P0000 T10441117 =
2014-11-28 11:32 METAR KMPO 281632Z AUTO 31014G23KT 10SM BKN029 OVC035 M04/M12 A3010 RMK AO2
                 SNE1559 P0000 T10441117 =
2014-11-28 11:23 METAR KMPO 281623Z AUTO 31013G23KT 10SM OVC032 M05/M12 A3011 RMK AO2 SNE1559
                 P0000 T10501117 =
2014-11-28 10:53 METAR KMPO 281553Z AUTO 30012KT 9SM -SN OVC026 M04/M11 A3012 RMK AO2 SNB50
                 SLP227 P0000 T10441106 =
2014-11-28 09:53 METAR KMPO 281453Z AUTO 30013G21KT 10SM BKN021 BKN027 OVC045 M04/M09 A3012 RMK
                 AO2 UPB15E32SNE15 SLP227 P0000 60000 T10441089 53011 =
2014-11-28 09:16 METAR KMPO 281416Z AUTO 31011G22KT 8SM UP SCT024 OVC041 M04/M08 A3011 RMK AO2
                 UPB15SNE15 P0000 T10441083 =
2014-11-28 09:10 METAR KMPO 281410Z AUTO 31012G22KT 2SM -SN FEW015 BKN024 OVC041 M04/M08 A3010
                 RMK AO2 P0000 T10441083 =
2014-11-28 09:01 METAR KMPO 281401Z AUTO 32014G25KT 1/2SM SN BKN018 OVC039 M04/M08 A3010 RMK AO2
                 P0000 T10441078 =
2014-11-28 08:53 METAR KMPO 281353Z AUTO 33013G19KT 1SM -SN BKN018 BKN023 OVC039 M04/M07 A3010
                 RMK AO2 SLP220 P0000 T10441072 =
2014-11-28 08:51 METAR KMPO 281351Z AUTO 31012G18KT 1 1/4SM -SN SCT016 BKN023 OVC039 M04/M07
                 A3010 RMK AO2 P0000 =
2014-11-28 08:44 METAR KMPO 281344Z AUTO 32012G21KT 3/4SM -SN FEW016 BKN023 OVC034 M04/M08 A3009
                 RMK AO2 P0000 T10441078 =
2014-11-28 08:30 METAR KMPO 281330Z AUTO 32014G23KT 1 3/4SM -SN FEW017 BKN025 OVC031 M04/M08
                 A3009 RMK AO2 P0000 T10441078 =
2014-11-28 08:22 METAR KMPO 281322Z AUTO 32017G23KT 4SM -SN FEW017 BKN024 OVC031 M04/M08 A3009
                 RMK AO2 P0000 T10441078 =
2014-11-28 08:04 METAR KMPO 281304Z AUTO 31015G24KT 2 1/2SM -SN SCT014 BKN019 OVC026 M04/M08
                 A3008 RMK AO2 P0000 T10441078 =
2014-11-28 07:53 METAR KMPO 281253Z AUTO 31009G18KT 3SM -SN BKN013 OVC022 M04/M07 A3008 RMK AO2
                 SLP215 P0000 T10441072 =
2014-11-28 07:38 METAR KMPO 281238Z AUTO 32012KT 3SM -SN BR SCT010 BKN016 OVC027 M04/M07 A3007
                 RMK AO2 P0000 T10441067 =
2014-11-28 07:13 METAR KMPO 281213Z AUTO 32008KT 1 1/4SM -SN BR FEW011 SCT016 OVC027 M04/M07
                 A3006 RMK AO2 P0000 T10441067 =
2014-11-28 06:35 METAR KMPO 281135Z AUTO 33007KT 2SM -SN BR SCT022 BKN029 OVC039 M04/M07 A3004
                 RMK AO2 P0000 T10441067 =
2014-11-28 06:19 METAR KMPO 281119Z AUTO 33011G18KT 1 3/4SM -SN SCT019 BKN024 OVC029 M04/M07
                 A3004 RMK AO2 P0000 T10441072 =
2014-11-28 06:08 METAR KMPO 281108Z AUTO 33011KT 5SM -SN SCT010 SCT016 OVC025 M04/M07 A3004 RMK
                 AO2 P0000 T10391072 =
2014-11-28 05:53 METAR KMPO 281053Z AUTO 32011G17KT 5SM -SN BR OVC012 M04/M06 A3004 RMK AO2 SNB04
                 SLP197 P0001 T10391061 =
2014-11-28 05:35 METAR KMPO 281035Z AUTO 31010KT 4SM -SN OVC013 M03/M06 A3003 RMK AO2 SNB04 P0001
                 T10331061 =
2014-11-28 04:53 METAR KMPO 280953Z AUTO 29007KT 10SM OVC020 M04/M06 A3001 RMK AO2 SLP187
                 T10391056 =
2014-11-28 04:18 METAR KMPO 280918Z AUTO 29008KT 10SM BKN023 OVC043 M04/M06 A2999 RMK AO2
                 T10391056 =
2014-11-28 03:53 METAR KMPO 280853Z AUTO 30007KT 10SM FEW008 SCT023 OVC043 M04/M06 A2999 RMK AO2
                 SNE28 SLP181 P0000 60000 T10391061 51006 =
2014-11-28 03:41 METAR KMPO 280841Z AUTO 29008KT 10SM SCT008 SCT023 OVC041 M04/M06 A2999 RMK AO2
                 SNE28 P0000 T10441061 =
2014-11-28 03:18 METAR KMPO 280818Z AUTO 29006KT 5SM -SN BR BKN008 OVC019 M04/M06 A2999 RMK AO2
                 CIG 006V011 P0000 T10441061 =
2014-11-28 03:02 METAR KMPO 280802Z AUTO 28006KT 4SM -SN BR FEW008 OVC019 M04/M06 A2999 RMK AO2
                 P0000 T10441061 =
2014-11-28 02:53 METAR KMPO 280753Z AUTO 29004KT 4SM -SN BR OVC018 M04/M06 A2999 RMK AO2 SLP180
                 P0000 T10441061 =
2014-11-28 02:36 METAR KMPO 280736Z AUTO 29007KT 3SM -SN BR BKN016 OVC022 M04/M06 A2999 RMK AO2
                 P0000 T10441061 =
2014-11-28 02:22 METAR KMPO 280722Z AUTO 29005KT 3SM -SN BR BKN014 BKN022 OVC026 M04/M07 A2999
                 RMK AO2 P0000 T10441067 =
2014-11-28 01:53 METAR KMPO 280653Z AUTO 29008KT 3SM -SN BR BKN026 OVC060 M04/M07 A2999 RMK AO2
                 SNB01 SLP179 P0000 T10441067 =
2014-11-28 01:43 METAR KMPO 280643Z AUTO 29007KT 4SM -SN BR OVC028 M04/M07 A2998 RMK AO2 SNB01
                 P0000 T10441067 =
2014-11-28 00:53 METAR KMPO 280553Z AUTO 29009KT 10SM SCT029 BKN038 OVC060 M04/M08 A2997 RMK AO2
                 SLP174 T10441078 11044 21067 56006 =
2014-11-27 23:53 METAR KMPO 280453Z AUTO 32006KT 10SM BKN027 M06/M08 A2998 RMK AO2 SLP179
                 T10611083 410111067 =
2014-11-27 23:50 METAR KMPO 280450Z AUTO 32006KT 10SM BKN027 M06/M08 A2998 RMK AO2 =
2014-11-27 22:53 METAR KMPO 280353Z AUTO 31005KT 10SM FEW024 M06/M08 A2999 RMK AO2 SLP183
                 T10611078 =
2014-11-27 21:53 METAR KMPO 280253Z AUTO 31008KT 10SM CLR M06/M08 A2999 RMK AO2 SLP181 T10561078
                 53009 =
2014-11-27 20:53 METAR KMPO 280153Z AUTO 32007KT 10SM CLR M05/M08 A2997 RMK AO2 SLP176 T10501078
                 =
2014-11-27 19:53 METAR KMPO 280053Z AUTO 31006KT 10SM CLR M04/M07 A2997 RMK AO2 SLP175 T10441072
                 =
2014-11-27 18:53 METAR KMPO 272353Z AUTO 32007KT 10SM CLR M04/M07 A2996 RMK AO2 SLP171 60000
                 T10441072 11011 21044 53007 =

Support USWX by starting your Amazon purchase here.